sensor_id;sensor_type;location;lat;lon;timestamp;P1;durP1;ratioP1;P2;durP2;ratioP2
12886;SDS011;6511;49.746;6.094;2022-09-03T00:02:16;3.00;;;2.20;;
12886;SDS011;6511;49.746;6.094;2022-09-03T00:05:02;3.67;;;2.17;;
12886;SDS011;6511;49.746;6.094;2022-09-03T00:07:56;2.70;;;2.10;;
12886;SDS011;6511;49.746;6.094;2022-09-03T00:10:47;2.58;;;2.17;;
12886;SDS011;6511;49.746;6.094;2022-09-03T00:13:56;2.22;;;2.00;;
12886;SDS011;6511;49.746;6.094;2022-09-03T00:16:19;3.90;;;2.10;;
12886;SDS011;6511;49.746;6.094;2022-09-03T00:18:55;2.97;;;1.93;;
12886;SDS011;6511;49.746;6.094;2022-09-03T00:23:59;2.58;;;2.10;;
12886;SDS011;6511;49.746;6.094;2022-09-03T00:26:28;2.28;;;2.13;;
12886;SDS011;6511;49.746;6.094;2022-09-03T00:29:06;3.70;;;2.30;;
12886;SDS011;6511;49.746;6.094;2022-09-03T00:31:38;3.10;;;2.33;;
12886;SDS011;6511;49.746;6.094;2022-09-03T00:36:46;3.55;;;2.10;;
12886;SDS011;6511;49.746;6.094;2022-09-03T00:39:13;2.50;;;1.97;;
12886;SDS011;6511;49.746;6.094;2022-09-03T00:41:56;2.83;;;2.10;;
12886;SDS011;6511;49.746;6.094;2022-09-03T00:47:13;3.10;;;2.00;;
12886;SDS011;6511;49.746;6.094;2022-09-03T00:52:41;2.28;;;1.92;;
12886;SDS011;6511;49.746;6.094;2022-09-03T00:55:28;3.80;;;2.30;;
12886;SDS011;6511;49.746;6.094;2022-09-03T01:00:44;2.10;;;1.90;;
12886;SDS011;6511;49.746;6.094;2022-09-03T01:05:59;2.67;;;2.40;;
12886;SDS011;6511;49.746;6.094;2022-09-03T01:14:25;3.40;;;2.50;;
12886;SDS011;6511;49.746;6.094;2022-09-03T01:17:25;2.92;;;2.50;;
12886;SDS011;6511;49.746;6.094;2022-09-03T01:37:18;4.72;;;2.88;;
12886;SDS011;6511;49.746;6.094;2022-09-03T01:42:22;2.90;;;2.70;;
12886;SDS011;6511;49.746;6.094;2022-09-03T01:50:53;3.33;;;2.60;;
12886;SDS011;6511;49.746;6.094;2022-09-03T02:04:31;3.22;;;2.53;;
12886;SDS011;6511;49.746;6.094;2022-09-03T02:06:58;3.20;;;2.90;;
12886;SDS011;6511;49.746;6.094;2022-09-03T02:09:25;4.00;;;2.80;;
12886;SDS011;6511;49.746;6.094;2022-09-03T02:11:56;3.03;;;2.50;;
12886;SDS011;6511;49.746;6.094;2022-09-03T02:14:29;3.78;;;2.63;;
12886;SDS011;6511;49.746;6.094;2022-09-03T02:16:56;3.43;;;2.83;;
12886;SDS011;6511;49.746;6.094;2022-09-03T02:19:25;4.03;;;2.88;;
12886;SDS011;6511;49.746;6.094;2022-09-03T02:21:54;3.08;;;2.78;;
12886;SDS011;6511;49.746;6.094;2022-09-03T02:24:21;2.88;;;2.50;;
12886;SDS011;6511;49.746;6.094;2022-09-03T02:26:47;4.13;;;2.40;;
12886;SDS011;6511;49.746;6.094;2022-09-03T02:29:14;3.30;;;2.80;;
12886;SDS011;6511;49.746;6.094;2022-09-03T02:31:41;2.90;;;2.60;;
12886;SDS011;6511;49.746;6.094;2022-09-03T02:34:07;4.20;;;2.80;;
12886;SDS011;6511;49.746;6.094;2022-09-03T02:36:34;3.30;;;2.70;;
12886;SDS011;6511;49.746;6.094;2022-09-03T02:39:02;3.83;;;3.20;;
12886;SDS011;6511;49.746;6.094;2022-09-03T02:41:29;3.60;;;2.70;;
12886;SDS011;6511;49.746;6.094;2022-09-03T02:43:57;4.47;;;2.63;;
12886;SDS011;6511;49.746;6.094;2022-09-03T02:46:37;4.03;;;2.53;;
12886;SDS011;6511;49.746;6.094;2022-09-03T02:49:05;2.60;;;2.40;;
12886;SDS011;6511;49.746;6.094;2022-09-03T02:51:32;2.75;;;2.42;;
12886;SDS011;6511;49.746;6.094;2022-09-03T02:54:03;2.70;;;2.50;;
12886;SDS011;6511;49.746;6.094;2022-09-03T02:56:29;4.90;;;2.60;;
12886;SDS011;6511;49.746;6.094;2022-09-03T02:58:54;3.10;;;2.50;;
12886;SDS011;6511;49.746;6.094;2022-09-03T03:01:21;3.65;;;2.70;;
12886;SDS011;6511;49.746;6.094;2022-09-03T03:03:47;4.03;;;2.80;;
12886;SDS011;6511;49.746;6.094;2022-09-03T03:06:12;4.05;;;3.25;;
12886;SDS011;6511;49.746;6.094;2022-09-03T03:08:39;4.23;;;3.40;;
12886;SDS011;6511;49.746;6.094;2022-09-03T03:11:04;4.28;;;3.70;;
12886;SDS011;6511;49.746;6.094;2022-09-03T03:13:30;4.20;;;3.80;;
12886;SDS011;6511;49.746;6.094;2022-09-03T03:15:57;4.35;;;3.60;;
12886;SDS011;6511;49.746;6.094;2022-09-03T03:18:24;4.80;;;3.90;;
12886;SDS011;6511;49.746;6.094;2022-09-03T03:20:50;4.00;;;3.30;;
12886;SDS011;6511;49.746;6.094;2022-09-03T03:23:16;6.20;;;3.42;;
12886;SDS011;6511;49.746;6.094;2022-09-03T03:25:42;4.25;;;3.85;;
12886;SDS011;6511;49.746;6.094;2022-09-03T03:28:08;4.93;;;4.10;;
12886;SDS011;6511;49.746;6.094;2022-09-03T03:30:36;4.57;;;3.90;;
12886;SDS011;6511;49.746;6.094;2022-09-03T03:33:03;4.30;;;3.90;;
12886;SDS011;6511;49.746;6.094;2022-09-03T03:35:30;4.47;;;4.07;;
12886;SDS011;6511;49.746;6.094;2022-09-03T03:37:59;4.63;;;4.00;;
12886;SDS011;6511;49.746;6.094;2022-09-03T03:40:25;4.88;;;3.80;;
12886;SDS011;6511;49.746;6.094;2022-09-03T03:42:50;4.50;;;4.10;;
12886;SDS011;6511;49.746;6.094;2022-09-03T03:45:17;5.32;;;4.53;;
12886;SDS011;6511;49.746;6.094;2022-09-03T03:47:43;4.95;;;3.80;;
12886;SDS011;6511;49.746;6.094;2022-09-03T03:50:09;4.80;;;3.67;;
12886;SDS011;6511;49.746;6.094;2022-09-03T03:52:34;4.37;;;3.97;;
12886;SDS011;6511;49.746;6.094;2022-09-03T03:55:00;3.97;;;3.57;;
12886;SDS011;6511;49.746;6.094;2022-09-03T03:57:28;3.72;;;3.42;;
12886;SDS011;6511;49.746;6.094;2022-09-03T03:59:54;5.32;;;3.72;;
12886;SDS011;6511;49.746;6.094;2022-09-03T04:02:20;3.90;;;3.60;;
12886;SDS011;6511;49.746;6.094;2022-09-03T04:04:46;4.32;;;3.53;;
12886;SDS011;6511;49.746;6.094;2022-09-03T04:07:11;4.60;;;3.70;;
12886;SDS011;6511;49.746;6.094;2022-09-03T04:09:37;4.10;;;3.70;;
12886;SDS011;6511;49.746;6.094;2022-09-03T04:12:03;4.22;;;3.80;;
12886;SDS011;6511;49.746;6.094;2022-09-03T04:14:32;4.22;;;3.70;;
12886;SDS011;6511;49.746;6.094;2022-09-03T04:16:59;3.80;;;3.50;;
12886;SDS011;6511;49.746;6.094;2022-09-03T04:19:26;4.18;;;3.70;;
12886;SDS011;6511;49.746;6.094;2022-09-03T04:21:54;4.05;;;3.70;;
12886;SDS011;6511;49.746;6.094;2022-09-03T04:24:20;4.10;;;3.80;;
12886;SDS011;6511;49.746;6.094;2022-09-03T04:26:46;3.63;;;3.33;;
12886;SDS011;6511;49.746;6.094;2022-09-03T04:29:14;3.58;;;3.28;;
12886;SDS011;6511;49.746;6.094;2022-09-03T04:31:40;4.45;;;3.00;;
12886;SDS011;6511;49.746;6.094;2022-09-03T04:34:25;3.70;;;3.38;;
12886;SDS011;6511;49.746;6.094;2022-09-03T04:36:51;4.50;;;3.20;;
12886;SDS011;6511;49.746;6.094;2022-09-03T04:39:16;3.50;;;3.20;;
12886;SDS011;6511;49.746;6.094;2022-09-03T04:41:42;3.60;;;3.30;;
12886;SDS011;6511;49.746;6.094;2022-09-03T04:44:08;3.70;;;3.40;;
12886;SDS011;6511;49.746;6.094;2022-09-03T04:46:34;3.88;;;3.53;;
12886;SDS011;6511;49.746;6.094;2022-09-03T04:49:00;4.10;;;3.80;;
12886;SDS011;6511;49.746;6.094;2022-09-03T04:51:26;4.50;;;3.93;;
12886;SDS011;6511;49.746;6.094;2022-09-03T04:53:55;4.18;;;3.53;;
12886;SDS011;6511;49.746;6.094;2022-09-03T04:56:27;3.90;;;3.50;;
12886;SDS011;6511;49.746;6.094;2022-09-03T04:58:59;4.63;;;4.22;;
12886;SDS011;6511;49.746;6.094;2022-09-03T05:01:33;3.88;;;3.47;;
12886;SDS011;6511;49.746;6.094;2022-09-03T05:04:00;3.93;;;3.60;;
12886;SDS011;6511;49.746;6.094;2022-09-03T05:06:27;4.03;;;3.63;;
12886;SDS011;6511;49.746;6.094;2022-09-03T05:08:54;3.57;;;3.27;;
12886;SDS011;6511;49.746;6.094;2022-09-03T05:11:20;3.50;;;3.17;;
12886;SDS011;6511;49.746;6.094;2022-09-03T05:13:50;4.30;;;3.70;;
12886;SDS011;6511;49.746;6.094;2022-09-03T05:16:18;3.80;;;3.50;;
12886;SDS011;6511;49.746;6.094;2022-09-03T05:18:44;4.18;;;3.70;;
12886;SDS011;6511;49.746;6.094;2022-09-03T05:21:12;4.05;;;3.38;;
12886;SDS011;6511;49.746;6.094;2022-09-03T05:23:40;5.43;;;3.50;;
12886;SDS011;6511;49.746;6.094;2022-09-03T05:26:08;3.60;;;3.30;;
12886;SDS011;6511;49.746;6.094;2022-09-03T05:28:36;3.97;;;3.40;;
12886;SDS011;6511;49.746;6.094;2022-09-03T05:31:04;3.43;;;3.13;;
12886;SDS011;6511;49.746;6.094;2022-09-03T05:33:35;4.82;;;3.60;;
12886;SDS011;6511;49.746;6.094;2022-09-03T05:36:03;4.00;;;3.60;;
12886;SDS011;6511;49.746;6.094;2022-09-03T05:38:30;4.85;;;3.40;;
12886;SDS011;6511;49.746;6.094;2022-09-03T05:40:57;4.10;;;3.50;;
12886;SDS011;6511;49.746;6.094;2022-09-03T05:43:25;3.50;;;3.10;;
12886;SDS011;6511;49.746;6.094;2022-09-03T05:45:51;4.60;;;3.23;;
12886;SDS011;6511;49.746;6.094;2022-09-03T05:48:20;3.60;;;3.30;;
12886;SDS011;6511;49.746;6.094;2022-09-03T05:50:46;4.13;;;3.47;;
12886;SDS011;6511;49.746;6.094;2022-09-03T05:53:12;3.88;;;3.00;;
12886;SDS011;6511;49.746;6.094;2022-09-03T05:55:38;3.30;;;3.00;;
12886;SDS011;6511;49.746;6.094;2022-09-03T05:58:04;4.88;;;3.13;;
12886;SDS011;6511;49.746;6.094;2022-09-03T06:00:29;4.25;;;3.10;;
12886;SDS011;6511;49.746;6.094;2022-09-03T06:02:55;3.70;;;3.27;;
12886;SDS011;6511;49.746;6.094;2022-09-03T06:05:22;4.67;;;3.10;;
12886;SDS011;6511;49.746;6.094;2022-09-03T06:07:47;3.50;;;3.20;;
12886;SDS011;6511;49.746;6.094;2022-09-03T06:10:13;4.33;;;3.40;;
12886;SDS011;6511;49.746;6.094;2022-09-03T06:12:40;3.60;;;3.30;;
12886;SDS011;6511;49.746;6.094;2022-09-03T06:15:09;3.88;;;3.50;;
12886;SDS011;6511;49.746;6.094;2022-09-03T06:17:36;4.17;;;3.33;;
12886;SDS011;6511;49.746;6.094;2022-09-03T06:20:02;6.03;;;3.95;;
12886;SDS011;6511;49.746;6.094;2022-09-03T06:22:28;4.67;;;3.63;;
12886;SDS011;6511;49.746;6.094;2022-09-03T06:24:55;3.63;;;3.20;;
12886;SDS011;6511;49.746;6.094;2022-09-03T06:27:21;5.35;;;3.20;;
12886;SDS011;6511;49.746;6.094;2022-09-03T06:29:46;3.60;;;3.00;;
12886;SDS011;6511;49.746;6.094;2022-09-03T06:32:12;3.45;;;3.13;;
12886;SDS011;6511;49.746;6.094;2022-09-03T06:34:38;5.97;;;4.13;;
12886;SDS011;6511;49.746;6.094;2022-09-03T06:37:04;4.07;;;3.60;;
12886;SDS011;6511;49.746;6.094;2022-09-03T06:39:29;4.03;;;3.63;;
12886;SDS011;6511;49.746;6.094;2022-09-03T06:41:55;4.13;;;3.60;;
12886;SDS011;6511;49.746;6.094;2022-09-03T06:44:21;3.70;;;3.40;;
12886;SDS011;6511;49.746;6.094;2022-09-03T06:46:46;4.63;;;3.60;;
12886;SDS011;6511;49.746;6.094;2022-09-03T06:49:12;3.60;;;3.30;;
12886;SDS011;6511;49.746;6.094;2022-09-03T06:51:38;4.80;;;3.40;;
12886;SDS011;6511;49.746;6.094;2022-09-03T06:54:05;3.67;;;3.22;;
12886;SDS011;6511;49.746;6.094;2022-09-03T06:56:33;3.60;;;3.30;;
12886;SDS011;6511;49.746;6.094;2022-09-03T06:59:06;3.80;;;3.40;;
12886;SDS011;6511;49.746;6.094;2022-09-03T07:01:34;3.93;;;3.43;;
12886;SDS011;6511;49.746;6.094;2022-09-03T07:04:03;3.60;;;3.30;;
12886;SDS011;6511;49.746;6.094;2022-09-03T07:06:30;4.13;;;3.00;;
12886;SDS011;6511;49.746;6.094;2022-09-03T07:09:01;5.10;;;2.70;;
12886;SDS011;6511;49.746;6.094;2022-09-03T07:11:28;3.22;;;2.30;;
12886;SDS011;6511;49.746;6.094;2022-09-03T07:13:56;3.58;;;2.92;;
12886;SDS011;6511;49.746;6.094;2022-09-03T07:16:23;3.78;;;3.13;;
12886;SDS011;6511;49.746;6.094;2022-09-03T07:18:54;4.32;;;3.10;;
12886;SDS011;6511;49.746;6.094;2022-09-03T07:21:21;3.50;;;3.20;;
12886;SDS011;6511;49.746;6.094;2022-09-03T07:23:52;5.85;;;3.05;;
12886;SDS011;6511;49.746;6.094;2022-09-03T07:26:23;3.57;;;3.20;;
12886;SDS011;6511;49.746;6.094;2022-09-03T07:28:57;5.20;;;3.17;;
12886;SDS011;6511;49.746;6.094;2022-09-03T07:31:28;3.83;;;3.10;;
12886;SDS011;6511;49.746;6.094;2022-09-03T07:36:28;3.97;;;3.13;;
12886;SDS011;6511;49.746;6.094;2022-09-03T07:38:55;6.10;;;3.40;;
12886;SDS011;6511;49.746;6.094;2022-09-03T07:41:22;5.13;;;3.50;;
12886;SDS011;6511;49.746;6.094;2022-09-03T07:43:49;4.35;;;3.78;;
12886;SDS011;6511;49.746;6.094;2022-09-03T07:46:16;7.47;;;4.35;;
12886;SDS011;6511;49.746;6.094;2022-09-03T07:48:48;6.43;;;4.50;;
12886;SDS011;6511;49.746;6.094;2022-09-03T07:51:16;9.25;;;4.90;;
12886;SDS011;6511;49.746;6.094;2022-09-03T07:53:43;9.25;;;5.57;;
12886;SDS011;6511;49.746;6.094;2022-09-03T07:56:10;12.52;;;6.75;;
12886;SDS011;6511;49.746;6.094;2022-09-03T07:58:37;11.02;;;7.50;;
12886;SDS011;6511;49.746;6.094;2022-09-03T08:01:10;11.38;;;7.95;;
12886;SDS011;6511;49.746;6.094;2022-09-03T08:03:38;11.03;;;8.27;;
12886;SDS011;6511;49.746;6.094;2022-09-03T08:06:07;10.50;;;8.98;;
12886;SDS011;6511;49.746;6.094;2022-09-03T08:08:34;11.18;;;8.82;;
12886;SDS011;6511;49.746;6.094;2022-09-03T08:11:08;11.43;;;10.10;;
12886;SDS011;6511;49.746;6.094;2022-09-03T08:13:38;13.48;;;9.68;;
12886;SDS011;6511;49.746;6.094;2022-09-03T08:16:07;13.95;;;11.00;;
12886;SDS011;6511;49.746;6.094;2022-09-03T08:18:34;14.25;;;11.75;;
12886;SDS011;6511;49.746;6.094;2022-09-03T08:21:07;14.83;;;11.70;;
12886;SDS011;6511;49.746;6.094;2022-09-03T08:23:36;16.55;;;12.65;;
12886;SDS011;6511;49.746;6.094;2022-09-03T08:26:03;14.95;;;11.90;;
12886;SDS011;6511;49.746;6.094;2022-09-03T08:28:30;12.48;;;11.25;;
12886;SDS011;6511;49.746;6.094;2022-09-03T08:30:58;17.02;;;13.10;;
12886;SDS011;6511;49.746;6.094;2022-09-03T08:33:35;12.73;;;11.45;;
12886;SDS011;6511;49.746;6.094;2022-09-03T08:36:03;12.73;;;11.32;;
12886;SDS011;6511;49.746;6.094;2022-09-03T08:38:30;13.40;;;12.07;;
12886;SDS011;6511;49.746;6.094;2022-09-03T08:46:32;11.97;;;10.77;;
12886;SDS011;6511;49.746;6.094;2022-09-03T08:49:04;10.73;;;8.20;;
12886;SDS011;6511;49.746;6.094;2022-09-03T08:51:34;10.65;;;8.18;;
12886;SDS011;6511;49.746;6.094;2022-09-03T08:54:01;11.35;;;9.27;;
12886;SDS011;6511;49.746;6.094;2022-09-03T08:56:29;9.27;;;8.27;;
12886;SDS011;6511;49.746;6.094;2022-09-03T08:58:57;10.80;;;8.30;;
12886;SDS011;6511;49.746;6.094;2022-09-03T09:04:12;9.63;;;8.18;;
12886;SDS011;6511;49.746;6.094;2022-09-03T09:07:04;21.15;;;19.02;;
12886;SDS011;6511;49.746;6.094;2022-09-03T09:10:02;10.23;;;8.13;;
12886;SDS011;6511;49.746;6.094;2022-09-03T09:16:02;10.50;;;8.10;;
12886;SDS011;6511;49.746;6.094;2022-09-03T09:21:50;8.05;;;7.25;;
12886;SDS011;6511;49.746;6.094;2022-09-03T09:24:25;8.10;;;7.40;;
12886;SDS011;6511;49.746;6.094;2022-09-03T09:26:58;8.65;;;7.63;;
12886;SDS011;6511;49.746;6.094;2022-09-03T09:29:30;8.35;;;7.40;;
12886;SDS011;6511;49.746;6.094;2022-09-03T09:32:00;8.30;;;7.47;;
12886;SDS011;6511;49.746;6.094;2022-09-03T09:34:26;7.90;;;7.20;;
12886;SDS011;6511;49.746;6.094;2022-09-03T09:36:52;8.30;;;7.50;;
12886;SDS011;6511;49.746;6.094;2022-09-03T09:39:20;8.32;;;7.45;;
12886;SDS011;6511;49.746;6.094;2022-09-03T09:41:59;9.15;;;7.22;;
12886;SDS011;6511;49.746;6.094;2022-09-03T09:44:37;7.75;;;7.05;;
12886;SDS011;6511;49.746;6.094;2022-09-03T09:47:07;8.77;;;6.93;;
12886;SDS011;6511;49.746;6.094;2022-09-03T09:49:37;7.70;;;7.00;;
12886;SDS011;6511;49.746;6.094;2022-09-03T09:52:19;7.63;;;6.63;;
12886;SDS011;6511;49.746;6.094;2022-09-03T09:54:49;7.05;;;6.35;;
12886;SDS011;6511;49.746;6.094;2022-09-03T09:57:17;6.45;;;5.88;;
12886;SDS011;6511;49.746;6.094;2022-09-03T09:59:49;8.00;;;6.80;;
12886;SDS011;6511;49.746;6.094;2022-09-03T10:02:26;9.23;;;7.10;;
12886;SDS011;6511;49.746;6.094;2022-09-03T10:04:58;7.07;;;6.32;;
12886;SDS011;6511;49.746;6.094;2022-09-03T10:07:52;7.50;;;6.05;;
12886;SDS011;6511;49.746;6.094;2022-09-03T10:10:23;7.15;;;6.50;;
12886;SDS011;6511;49.746;6.094;2022-09-03T10:15:59;7.47;;;6.68;;
12886;SDS011;6511;49.746;6.094;2022-09-03T10:18:38;8.02;;;7.25;;
12886;SDS011;6511;49.746;6.094;2022-09-03T10:26:40;8.20;;;7.45;;
12886;SDS011;6511;49.746;6.094;2022-09-03T10:29:08;8.10;;;7.30;;
12886;SDS011;6511;49.746;6.094;2022-09-03T10:34:39;7.55;;;6.90;;
12886;SDS011;6511;49.746;6.094;2022-09-03T10:45:40;8.48;;;7.65;;
12886;SDS011;6511;49.746;6.094;2022-09-03T11:04:59;7.30;;;6.40;;
12886;SDS011;6511;49.746;6.094;2022-09-03T11:07:35;7.10;;;6.40;;
12886;SDS011;6511;49.746;6.094;2022-09-03T11:15:32;9.30;;;8.52;;
12886;SDS011;6511;49.746;6.094;2022-09-03T11:20:52;7.97;;;5.90;;
12886;SDS011;6511;49.746;6.094;2022-09-03T11:23:28;6.13;;;5.63;;
12886;SDS011;6511;49.746;6.094;2022-09-03T11:25:58;5.70;;;5.20;;
12886;SDS011;6511;49.746;6.094;2022-09-03T11:31:06;5.28;;;4.85;;
12886;SDS011;6511;49.746;6.094;2022-09-03T11:33:46;5.18;;;4.75;;
12886;SDS011;6511;49.746;6.094;2022-09-03T11:36:27;5.30;;;4.80;;
12886;SDS011;6511;49.746;6.094;2022-09-03T11:38:59;5.30;;;4.80;;
12886;SDS011;6511;49.746;6.094;2022-09-03T11:41:25;5.40;;;4.90;;
12886;SDS011;6511;49.746;6.094;2022-09-03T11:44:09;9.55;;;8.57;;
12886;SDS011;6511;49.746;6.094;2022-09-03T11:46:41;5.47;;;4.97;;
12886;SDS011;6511;49.746;6.094;2022-09-03T11:49:26;4.40;;;4.00;;
12886;SDS011;6511;49.746;6.094;2022-09-03T11:51:58;4.77;;;4.37;;
12886;SDS011;6511;49.746;6.094;2022-09-03T11:54:25;4.45;;;4.05;;
12886;SDS011;6511;49.746;6.094;2022-09-03T11:59:54;4.55;;;4.15;;
12886;SDS011;6511;49.746;6.094;2022-09-03T12:02:32;4.77;;;4.37;;
12886;SDS011;6511;49.746;6.094;2022-09-03T12:18:48;4.60;;;4.20;;
12886;SDS011;6511;49.746;6.094;2022-09-03T12:21:17;4.40;;;4.10;;
12886;SDS011;6511;49.746;6.094;2022-09-03T12:23:44;4.30;;;3.90;;
12886;SDS011;6511;49.746;6.094;2022-09-03T12:26:25;4.15;;;3.75;;
12886;SDS011;6511;49.746;6.094;2022-09-03T12:28:55;4.67;;;3.93;;
12886;SDS011;6511;49.746;6.094;2022-09-03T12:36:36;27.20;;;8.50;;
12886;SDS011;6511;49.746;6.094;2022-09-03T12:39:12;28.02;;;10.07;;
12886;SDS011;6511;49.746;6.094;2022-09-03T12:42:00;23.55;;;9.82;;
12886;SDS011;6511;49.746;6.094;2022-09-03T12:44:31;36.57;;;14.03;;
12886;SDS011;6511;49.746;6.094;2022-09-03T12:47:16;39.90;;;10.18;;
12886;SDS011;6511;49.746;6.094;2022-09-03T12:49:45;66.77;;;10.73;;
12886;SDS011;6511;49.746;6.094;2022-09-03T12:57:31;25.75;;;7.85;;
12886;SDS011;6511;49.746;6.094;2022-09-03T13:00:08;11.95;;;3.50;;
12886;SDS011;6511;49.746;6.094;2022-09-03T13:05:22;5.82;;;4.20;;
12886;SDS011;6511;49.746;6.094;2022-09-03T13:07:56;5.80;;;4.40;;
12886;SDS011;6511;49.746;6.094;2022-09-03T13:10:30;5.40;;;4.20;;
12886;SDS011;6511;49.746;6.094;2022-09-03T13:13:27;7.00;;;5.55;;
12886;SDS011;6511;49.746;6.094;2022-09-03T13:19:02;7.53;;;5.95;;
12886;SDS011;6511;49.746;6.094;2022-09-03T13:38:11;24.88;;;22.33;;
12886;SDS011;6511;49.746;6.094;2022-09-03T13:40:53;4.88;;;3.92;;
12886;SDS011;6511;49.746;6.094;2022-09-03T13:45:55;3.80;;;3.35;;
12886;SDS011;6511;49.746;6.094;2022-09-03T13:48:35;5.22;;;3.30;;
12886;SDS011;6511;49.746;6.094;2022-09-03T13:51:25;6.05;;;4.03;;
12886;SDS011;6511;49.746;6.094;2022-09-03T13:57:00;5.32;;;4.80;;
12886;SDS011;6511;49.746;6.094;2022-09-03T14:05:33;5.15;;;4.65;;
12886;SDS011;6511;49.746;6.094;2022-09-03T14:08:19;3.90;;;3.60;;
12886;SDS011;6511;49.746;6.094;2022-09-03T14:13:27;4.32;;;3.90;;
12886;SDS011;6511;49.746;6.094;2022-09-03T14:21:55;3.53;;;3.22;;
12886;SDS011;6511;49.746;6.094;2022-09-03T14:24:27;4.43;;;3.95;;
12886;SDS011;6511;49.746;6.094;2022-09-03T14:27:09;4.33;;;3.40;;
12886;SDS011;6511;49.746;6.094;2022-09-03T14:29:35;3.60;;;3.30;;
12886;SDS011;6511;49.746;6.094;2022-09-03T14:40:21;4.32;;;2.30;;
12886;SDS011;6511;49.746;6.094;2022-09-03T14:53:48;1.67;;;1.50;;
12886;SDS011;6511;49.746;6.094;2022-09-03T14:59:06;2.25;;;1.63;;
12886;SDS011;6511;49.746;6.094;2022-09-03T15:01:35;1.95;;;1.60;;
12886;SDS011;6511;49.746;6.094;2022-09-03T15:06:31;2.30;;;1.70;;
12886;SDS011;6511;49.746;6.094;2022-09-03T15:09:17;1.70;;;1.60;;
12886;SDS011;6511;49.746;6.094;2022-09-03T15:12:05;12.77;;;11.20;;
12886;SDS011;6511;49.746;6.094;2022-09-03T15:14:54;17.50;;;16.00;;
12886;SDS011;6511;49.746;6.094;2022-09-03T15:17:33;2.20;;;1.60;;
12886;SDS011;6511;49.746;6.094;2022-09-03T15:26:14;2.13;;;1.50;;
12886;SDS011;6511;49.746;6.094;2022-09-03T15:28:58;3.27;;;1.60;;
12886;SDS011;6511;49.746;6.094;2022-09-03T15:34:29;5.10;;;1.70;;
12886;SDS011;6511;49.746;6.094;2022-09-03T15:37:07;1.40;;;1.30;;
12886;SDS011;6511;49.746;6.094;2022-09-03T15:39:43;1.50;;;1.40;;
12886;SDS011;6511;49.746;6.094;2022-09-03T15:42:17;2.23;;;1.30;;
12886;SDS011;6511;49.746;6.094;2022-09-03T15:44:51;2.57;;;1.30;;
12886;SDS011;6511;49.746;6.094;2022-09-03T15:47:35;3.50;;;1.50;;
12886;SDS011;6511;49.746;6.094;2022-09-03T15:56:17;3.22;;;1.40;;
12886;SDS011;6511;49.746;6.094;2022-09-03T15:58:59;2.85;;;1.52;;
12886;SDS011;6511;49.746;6.094;2022-09-03T16:07:06;2.75;;;1.90;;
12886;SDS011;6511;49.746;6.094;2022-09-03T16:09:57;3.78;;;2.05;;
12886;SDS011;6511;49.746;6.094;2022-09-03T16:13:00;2.17;;;1.88;;
12886;SDS011;6511;49.746;6.094;2022-09-03T16:15:45;2.38;;;2.00;;
12886;SDS011;6511;49.746;6.094;2022-09-03T16:18:21;2.75;;;2.22;;
12886;SDS011;6511;49.746;6.094;2022-09-03T16:24:02;2.55;;;1.92;;
12886;SDS011;6511;49.746;6.094;2022-09-03T16:26:40;3.75;;;2.00;;
12886;SDS011;6511;49.746;6.094;2022-09-03T16:29:14;7.88;;;7.10;;
12886;SDS011;6511;49.746;6.094;2022-09-03T16:34:20;2.75;;;2.00;;
12886;SDS011;6511;49.746;6.094;2022-09-03T16:40:17;2.33;;;2.13;;
12886;SDS011;6511;49.746;6.094;2022-09-03T16:42:54;2.67;;;2.00;;
12886;SDS011;6511;49.746;6.094;2022-09-03T16:51:36;2.37;;;2.00;;
12886;SDS011;6511;49.746;6.094;2022-09-03T17:10:16;2.30;;;1.98;;
12886;SDS011;6511;49.746;6.094;2022-09-03T17:12:57;2.63;;;1.80;;
12886;SDS011;6511;49.746;6.094;2022-09-03T17:15:31;3.47;;;1.88;;
12886;SDS011;6511;49.746;6.094;2022-09-03T17:18:12;2.92;;;1.77;;
12886;SDS011;6511;49.746;6.094;2022-09-03T17:20:57;2.03;;;1.77;;
12886;SDS011;6511;49.746;6.094;2022-09-03T17:29:15;5.45;;;4.95;;
12886;SDS011;6511;49.746;6.094;2022-09-03T17:35:10;2.25;;;1.67;;
12886;SDS011;6511;49.746;6.094;2022-09-03T17:37:52;1.83;;;1.40;;
12886;SDS011;6511;49.746;6.094;2022-09-03T17:40:31;1.73;;;1.50;;
12886;SDS011;6511;49.746;6.094;2022-09-03T17:45:50;1.80;;;1.40;;
12886;SDS011;6511;49.746;6.094;2022-09-03T18:00:07;1.73;;;1.50;;
12886;SDS011;6511;49.746;6.094;2022-09-03T18:02:42;2.35;;;1.80;;
12886;SDS011;6511;49.746;6.094;2022-09-03T18:05:26;2.58;;;1.80;;
12886;SDS011;6511;49.746;6.094;2022-09-03T18:18:26;3.00;;;1.45;;
12886;SDS011;6511;49.746;6.094;2022-09-03T18:20:54;2.30;;;1.40;;
12886;SDS011;6511;49.746;6.094;2022-09-03T18:26:35;2.08;;;1.40;;
12886;SDS011;6511;49.746;6.094;2022-09-03T18:29:35;5.40;;;1.77;;
12886;SDS011;6511;49.746;6.094;2022-09-03T18:32:33;2.95;;;1.60;;
12886;SDS011;6511;49.746;6.094;2022-09-03T18:35:17;3.33;;;1.85;;
12886;SDS011;6511;49.746;6.094;2022-09-03T18:38:02;1.80;;;1.63;;
12886;SDS011;6511;49.746;6.094;2022-09-03T18:40:58;3.03;;;1.90;;
12886;SDS011;6511;49.746;6.094;2022-09-03T18:44:02;2.63;;;1.90;;
12886;SDS011;6511;49.746;6.094;2022-09-03T18:57:07;4.60;;;1.92;;
12886;SDS011;6511;49.746;6.094;2022-09-03T19:09:05;2.95;;;1.90;;
12886;SDS011;6511;49.746;6.094;2022-09-03T19:15:07;5.03;;;2.50;;
12886;SDS011;6511;49.746;6.094;2022-09-03T19:18:19;3.80;;;2.38;;
12886;SDS011;6511;49.746;6.094;2022-09-03T19:24:12;3.30;;;2.00;;
12886;SDS011;6511;49.746;6.094;2022-09-03T19:35:40;4.50;;;2.20;;
12886;SDS011;6511;49.746;6.094;2022-09-03T19:41:58;4.07;;;2.42;;
12886;SDS011;6511;49.746;6.094;2022-09-03T19:44:59;3.65;;;2.30;;
12886;SDS011;6511;49.746;6.094;2022-09-03T19:48:03;3.47;;;2.10;;
12886;SDS011;6511;49.746;6.094;2022-09-03T19:51:15;3.33;;;2.20;;
12886;SDS011;6511;49.746;6.094;2022-09-03T19:54:03;3.20;;;2.30;;
12886;SDS011;6511;49.746;6.094;2022-09-03T19:56:51;3.63;;;2.17;;
12886;SDS011;6511;49.746;6.094;2022-09-03T19:59:38;3.78;;;2.58;;
12886;SDS011;6511;49.746;6.094;2022-09-03T20:02:24;4.07;;;2.45;;
12886;SDS011;6511;49.746;6.094;2022-09-03T20:05:26;5.78;;;2.40;;
12886;SDS011;6511;49.746;6.094;2022-09-03T20:08:12;3.40;;;2.50;;
12886;SDS011;6511;49.746;6.094;2022-09-03T20:10:59;3.83;;;2.58;;
12886;SDS011;6511;49.746;6.094;2022-09-03T20:13:26;5.60;;;2.97;;
12886;SDS011;6511;49.746;6.094;2022-09-03T20:16:08;4.90;;;2.80;;
12886;SDS011;6511;49.746;6.094;2022-09-03T20:21:30;5.35;;;4.75;;
12886;SDS011;6511;49.746;6.094;2022-09-03T20:29:55;3.25;;;2.83;;
12886;SDS011;6511;49.746;6.094;2022-09-03T20:38:46;4.22;;;3.00;;
12886;SDS011;6511;49.746;6.094;2022-09-03T20:42:10;3.72;;;3.00;;
12886;SDS011;6511;49.746;6.094;2022-09-03T20:49:52;5.75;;;3.33;;
12886;SDS011;6511;49.746;6.094;2022-09-03T20:55:42;4.90;;;3.13;;
12886;SDS011;6511;49.746;6.094;2022-09-03T20:58:14;5.07;;;3.50;;
12886;SDS011;6511;49.746;6.094;2022-09-03T21:00:58;4.63;;;3.55;;
12886;SDS011;6511;49.746;6.094;2022-09-03T21:14:40;4.40;;;3.90;;
12886;SDS011;6511;49.746;6.094;2022-09-03T21:22:59;4.10;;;3.50;;
12886;SDS011;6511;49.746;6.094;2022-09-03T21:25:48;4.80;;;3.88;;
12886;SDS011;6511;49.746;6.094;2022-09-03T21:31:24;5.07;;;3.70;;
12886;SDS011;6511;49.746;6.094;2022-09-03T21:33:57;5.20;;;4.20;;
12886;SDS011;6511;49.746;6.094;2022-09-03T21:36:32;5.43;;;4.03;;
12886;SDS011;6511;49.746;6.094;2022-09-03T21:39:08;4.47;;;4.07;;
12886;SDS011;6511;49.746;6.094;2022-09-03T21:41:40;7.40;;;4.97;;
12886;SDS011;6511;49.746;6.094;2022-09-03T21:44:18;6.30;;;5.70;;
12886;SDS011;6511;49.746;6.094;2022-09-03T21:47:04;4.97;;;4.47;;
12886;SDS011;6511;49.746;6.094;2022-09-03T21:52:18;4.50;;;4.10;;
12886;SDS011;6511;49.746;6.094;2022-09-03T21:54:52;4.83;;;4.00;;
12886;SDS011;6511;49.746;6.094;2022-09-03T21:57:19;4.93;;;4.22;;
12886;SDS011;6511;49.746;6.094;2022-09-03T22:00:07;5.13;;;4.45;;
12886;SDS011;6511;49.746;6.094;2022-09-03T22:02:37;5.40;;;4.50;;
12886;SDS011;6511;49.746;6.094;2022-09-03T22:05:04;4.95;;;4.40;;
12886;SDS011;6511;49.746;6.094;2022-09-03T22:07:47;4.90;;;4.30;;
12886;SDS011;6511;49.746;6.094;2022-09-03T22:15:33;6.95;;;6.25;;